Time;durP1;ratioP1;P1;durP2;ratioP2;P2;SDS_P1;SDS_P2;PMS_P1;PMS_P2;Temp;Humidity;BMP_temperature;BMP_pressure;BME280_temperature;BME280_humidity;BME280_pressure;Samples;Min_cycle;Max_cycle;Signal;HPM_P1;HPM_P2
2022/07/02 00:00:55;;;;;;;13.35;5.05;;;;;;;12.11;56.98;99763.16;5036972;28;20053;-64
2022/07/02 00:03:29;;;;;;;9.25;4.20;;;;;;;12.07;57.26;99767.34;5047598;28;20392;-63
2022/07/02 00:05:57;;;;;;;7.25;4.30;;;;;;;12.05;57.47;99771.03;5040778;28;20072;-63
2022/07/02 00:08:24;;;;;;;7.45;4.15;;;;;;;12.02;57.09;99771.50;5038901;28;20045;-63
2022/07/02 00:10:51;;;;;;;9.18;4.60;;;;;;;12.02;57.53;99765.38;5050063;28;20065;-63
2022/07/02 00:13:17;;;;;;;8.10;4.30;;;;;;;11.98;57.39;99761.59;5049428;28;20049;-64
2022/07/02 00:15:44;;;;;;;13.40;5.25;;;;;;;11.95;57.39;99764.72;5035812;28;20520;-64
2022/07/02 00:18:10;;;;;;;15.23;6.05;;;;;;;11.94;57.51;99771.06;5040290;28;20294;-64
2022/07/02 00:20:37;;;;;;;7.65;4.90;;;;;;;11.89;57.51;99769.13;5053471;28;20570;-64
2022/07/02 00:23:03;;;;;;;10.50;5.00;;;;;;;11.84;57.73;99766.34;5047238;28;20518;-64
2022/07/02 00:25:33;;;;;;;8.57;4.90;;;;;;;11.85;57.41;99760.00;5037482;28;20128;-64
2022/07/02 00:27:59;;;;;;;14.57;5.18;;;;;;;11.91;57.05;99761.75;5036563;28;20040;-64
2022/07/02 00:30:25;;;;;;;8.77;4.75;;;;;;;11.96;57.31;99763.66;5036236;28;20048;-64
2022/07/02 00:32:51;;;;;;;10.40;4.65;;;;;;;11.94;57.24;99771.91;5046462;28;20415;-64
2022/07/02 00:35:17;;;;;;;11.15;5.22;;;;;;;11.91;57.53;99775.03;5033731;28;20038;-65
2022/07/02 00:37:43;;;;;;;15.00;5.63;;;;;;;11.85;57.80;99773.28;5035716;28;20033;-64
2022/07/02 00:40:09;;;;;;;14.75;5.00;;;;;;;11.78;58.25;99781.38;5054832;28;20483;-63
2022/07/02 00:42:36;;;;;;;9.13;5.55;;;;;;;11.74;58.11;99774.94;5053323;28;20072;-63
2022/07/02 00:45:02;;;;;;;11.93;5.10;;;;;;;11.69;58.12;99780.13;5045134;28;20640;-64
2022/07/02 00:47:30;;;;;;;7.55;4.22;;;;;;;11.60;58.16;99765.59;5052443;28;20096;-63
2022/07/02 00:49:56;;;;;;;8.15;4.78;;;;;;;11.67;57.89;99784.84;5054484;28;20488;-63
2022/07/02 00:52:22;;;;;;;8.40;4.47;;;;;;;11.79;57.17;99785.66;5037776;28;20093;-65
2022/07/02 00:54:47;;;;;;;10.18;4.97;;;;;;;11.91;57.22;99784.81;5048870;28;20038;-64
2022/07/02 00:57:13;;;;;;;9.38;4.95;;;;;;;11.91;57.83;99787.47;5048355;28;20132;-64
2022/07/02 00:59:40;;;;;;;7.68;4.32;;;;;;;11.87;58.13;99800.44;5040084;28;20057;-65
2022/07/02 01:02:09;;;;;;;10.45;4.63;;;;;;;11.87;57.97;99803.09;5050428;28;20095;-65
2022/07/02 01:04:35;;;;;;;7.95;4.40;;;;;;;11.89;57.87;99801.00;5041605;28;20059;-64
2022/07/02 01:07:03;;;;;;;12.45;4.68;;;;;;;11.96;57.67;99798.22;5034718;28;20041;-63
2022/07/02 01:12:18;;;;;;;10.07;4.22;;;;;;;12.19;56.41;99806.09;5043135;28;20076;-63
2022/07/02 01:14:45;;;;;;;9.73;4.60;;;;;;;12.30;55.65;99806.31;5046564;28;20045;-64
2022/07/02 01:17:10;;;;;;;10.13;5.13;;;;;;;12.37;55.63;99806.94;5043037;28;20487;-63
2022/07/02 01:19:36;;;;;;;13.23;5.63;;;;;;;12.39;55.75;99805.66;5044052;28;20069;-64
2022/07/02 01:22:14;;;;;;;11.60;4.90;;;;;;;12.49;54.60;99805.03;5046214;28;20045;-64
2022/07/02 01:24:40;;;;;;;9.02;4.70;;;;;;;12.65;55.38;99803.47;5044619;28;20041;-64
2022/07/02 01:27:06;;;;;;;8.32;5.38;;;;;;;12.74;55.15;99807.34;5052397;28;20098;-64
2022/07/02 01:29:32;;;;;;;9.95;5.72;;;;;;;12.80;55.22;99814.34;5035922;28;20456;-65
2022/07/02 01:31:58;;;;;;;7.93;4.68;;;;;;;12.84;54.52;99804.00;5032268;28;20178;-65
2022/07/02 01:34:23;;;;;;;8.43;4.88;;;;;;;12.86;54.20;99805.38;5039774;28;20037;-65
2022/07/02 01:36:49;;;;;;;8.23;4.43;;;;;;;12.97;54.19;99806.38;5053792;28;20128;-64
2022/07/02 01:39:16;;;;;;;8.30;4.25;;;;;;;13.08;53.69;99808.13;5039155;28;20041;-64
2022/07/02 01:41:41;;;;;;;6.78;4.18;;;;;;;13.21;52.97;99800.84;5016092;28;20037;-64
2022/07/02 01:44:08;;;;;;;9.82;5.25;;;;;;;13.39;53.27;99812.06;5044857;28;20072;-64
2022/07/02 01:46:34;;;;;;;11.07;4.50;;;;;;;13.53;52.76;99817.03;5035858;28;20045;-63
2022/07/02 01:49:00;;;;;;;8.20;4.30;;;;;;;13.69;51.87;99813.53;5044501;28;20056;-66
2022/07/02 01:51:26;;;;;;;10.57;4.50;;;;;;;13.87;51.37;99815.06;5053803;28;20473;-65
2022/07/02 01:53:52;;;;;;;7.78;4.20;;;;;;;14.03;51.01;99818.69;5037108;28;20057;-63
2022/07/02 01:56:17;;;;;;;12.15;4.20;;;;;;;14.26;49.94;99817.63;5049522;28;20078;-63
2022/07/02 01:58:43;;;;;;;10.65;4.57;;;;;;;14.54;49.39;99816.63;5049962;28;20406;-65
2022/07/02 02:01:10;;;;;;;12.45;5.53;;;;;;;14.83;48.53;99819.81;5044364;28;20091;-66
2022/07/02 02:03:36;;;;;;;9.77;4.68;;;;;;;15.04;47.73;99822.63;5044117;28;20083;-64
2022/07/02 02:06:03;;;;;;;9.45;4.57;;;;;;;15.11;47.50;99825.88;5040339;28;20057;-66
2022/07/02 02:08:28;;;;;;;8.88;4.20;;;;;;;15.19;47.72;99831.53;5048986;28;20052;-64
2022/07/02 02:10:54;;;;;;;8.13;4.28;;;;;;;15.39;46.83;99838.09;5033188;28;20041;-65
2022/07/02 02:13:19;;;;;;;7.95;5.03;;;;;;;15.84;46.17;99839.41;5034309;28;20060;-63
2022/07/02 02:15:45;;;;;;;7.88;5.32;;;;;;;16.19;44.87;99840.63;5033234;28;20467;-64
2022/07/02 02:18:11;;;;;;;7.68;4.68;;;;;;;16.40;43.97;99844.16;5042189;28;20045;-63
2022/07/02 02:20:38;;;;;;;9.73;5.25;;;;;;;16.26;44.46;99836.59;5040368;28;20045;-64
2022/07/02 02:23:05;;;;;;;8.07;4.35;;;;;;;16.20;44.58;99834.19;5042365;28;20057;-64
2022/07/02 02:25:31;;;;;;;7.90;4.72;;;;;;;16.21;44.31;99838.50;5041811;28;20045;-63
2022/07/02 02:27:58;;;;;;;13.95;5.40;;;;;;;16.31;43.37;99843.84;5037511;28;20519;-64
2022/07/02 02:30:24;;;;;;;12.45;5.57;;;;;;;16.48;43.28;99836.41;5049323;28;20096;-64
2022/07/02 02:32:50;;;;;;;7.85;3.72;;;;;;;16.53;43.08;99840.94;5033871;28;20053;-64
2022/07/02 02:35:15;;;;;;;5.07;3.50;;;;;;;16.86;42.49;99839.69;5040388;28;20087;-64
2022/07/02 02:37:41;;;;;;;6.50;3.88;;;;;;;17.34;41.58;99842.84;5046991;28;20045;-64
2022/07/02 02:40:07;;;;;;;7.25;3.50;;;;;;;17.80;40.74;99840.09;5032625;28;20175;-64
2022/07/02 02:42:33;;;;;;;6.90;4.15;;;;;;;17.97;40.14;99842.44;5045428;28;20140;-64
2022/07/02 02:44:59;;;;;;;6.00;3.42;;;;;;;18.15;39.24;99833.75;5039671;28;20385;-64
2022/07/02 02:47:24;;;;;;;7.57;3.88;;;;;;;18.58;38.35;99839.38;5042961;28;20040;-64
2022/07/02 02:49:50;;;;;;;5.63;3.40;;;;;;;19.12;37.00;99847.59;5036459;28;20090;-63
2022/07/02 02:52:16;;;;;;;7.32;4.10;;;;;;;19.01;37.18;99839.63;5049206;28;20044;-63
2022/07/02 02:54:42;;;;;;;17.25;4.00;;;;;;;19.07;37.18;99835.03;5050742;28;20278;-64
2022/07/02 02:57:08;;;;;;;9.70;4.43;;;;;;;19.06;37.38;99828.84;5050388;28;20041;-64
2022/07/02 02:59:34;;;;;;;11.00;4.75;;;;;;;19.01;37.53;99825.41;5039269;28;20064;-65
2022/07/02 03:02:00;;;;;;;9.18;4.60;;;;;;;19.35;37.11;99824.53;5039227;28;20037;-64
2022/07/02 03:04:25;;;;;;;8.10;4.75;;;;;;;19.60;36.51;99828.84;5050699;28;20094;-63
2022/07/02 03:06:51;;;;;;;10.00;4.65;;;;;;;19.96;36.46;99829.25;5038656;28;20411;-64
2022/07/02 03:09:17;;;;;;;12.52;4.68;;;;;;;20.25;36.71;99831.81;5032293;28;20045;-64
2022/07/02 03:11:43;;;;;;;14.73;5.43;;;;;;;20.76;36.94;99836.47;5030686;28;20045;-64
2022/07/02 03:14:08;;;;;;;9.15;5.20;;;;;;;21.22;37.43;99843.00;5031958;28;20087;-65
2022/07/02 03:16:34;;;;;;;9.57;4.47;;;;;;;21.15;37.08;99848.78;5032120;28;20073;-64
2022/07/02 03:19:00;;;;;;;10.85;4.57;;;;;;;21.19;36.51;99841.69;5043397;28;20041;-64
2022/07/02 03:21:25;;;;;;;8.18;4.38;;;;;;;21.22;35.99;99843.78;5051841;28;20056;-64
2022/07/02 03:23:51;;;;;;;9.80;4.68;;;;;;;21.58;36.28;99831.56;5052000;28;20045;-64
2022/07/02 03:26:17;;;;;;;11.38;4.82;;;;;;;21.73;35.91;99834.75;5041812;28;20124;-65
2022/07/02 03:28:42;;;;;;;9.50;4.90;;;;;;;22.00;35.17;99836.66;5030394;28;20561;-64
2022/07/02 03:31:08;;;;;;;8.73;4.40;;;;;;;22.05;33.87;99837.63;5031608;28;20041;-63
2022/07/02 03:33:34;;;;;;;10.25;4.60;;;;;;;22.20;33.92;99846.22;5030199;28;20140;-64
2022/07/02 03:35:59;;;;;;;10.30;4.97;;;;;;;22.38;34.00;99847.19;5042664;28;20041;-63
2022/07/02 03:38:25;;;;;;;17.25;5.80;;;;;;;22.48;33.80;99848.06;5051843;28;20041;-64
2022/07/02 03:40:51;;;;;;;13.60;5.40;;;;;;;22.86;34.13;99852.00;5042897;28;20042;-63
2022/07/02 03:43:16;;;;;;;9.63;4.68;;;;;;;23.06;33.84;99849.91;5031644;28;20064;-63
2022/07/02 03:45:42;;;;;;;21.35;6.03;;;;;;;23.11;33.05;99847.88;5037673;28;20045;-64
2022/07/02 03:48:08;;;;;;;11.00;5.18;;;;;;;23.32;33.41;99848.19;5051569;28;20175;-63
2022/07/02 03:50:38;;;;;;;10.55;5.07;;;;;;;23.50;33.45;99850.94;5051269;28;20425;-63
2022/07/02 03:53:04;;;;;;;14.73;5.97;;;;;;;23.48;32.96;99843.16;5050135;28;20441;-64
2022/07/02 03:55:30;;;;;;;11.02;4.40;;;;;;;23.51;32.95;99850.63;5034693;28;20041;-63
2022/07/02 03:57:56;;;;;;;15.32;5.13;;;;;;;23.45;33.32;99848.38;5032635;28;20192;-63
2022/07/02 04:00:22;;;;;;;10.80;5.05;;;;;;;23.42;33.16;99857.91;5031403;28;20144;-62
2022/07/02 04:02:47;;;;;;;7.60;4.55;;;;;;;23.29;34.02;99862.28;5031659;28;20096;-64
2022/07/02 04:05:13;;;;;;;10.20;5.13;;;;;;;22.92;33.91;99855.38;5031294;28;20060;-63
2022/07/02 04:07:40;;;;;;;17.08;4.35;;;;;;;22.77;33.97;99861.16;5032664;28;20376;-63
2022/07/02 04:10:07;;;;;;;8.43;4.30;;;;;;;22.75;33.67;99863.38;5030245;28;20049;-63
2022/07/02 04:12:33;;;;;;;7.03;4.05;;;;;;;22.73;34.03;99862.88;5031488;28;20107;-63
2022/07/02 04:14:59;;;;;;;6.53;4.18;;;;;;;22.93;34.55;99859.69;5031477;28;20045;-63
2022/07/02 04:17:24;;;;;;;6.43;4.32;;;;;;;23.19;33.52;99862.56;5013419;28;20042;-63
2022/07/02 04:19:50;;;;;;;6.95;3.85;;;;;;;23.12;33.91;99860.31;5013753;28;20045;-64
2022/07/02 04:22:16;;;;;;;8.63;3.75;;;;;;;23.21;33.52;99864.97;5031328;28;20041;-63
2022/07/02 04:24:41;;;;;;;7.13;4.40;;;;;;;23.21;33.30;99864.97;5013668;28;20111;-63
2022/07/02 04:27:07;;;;;;;8.05;3.88;;;;;;;23.47;32.86;99867.78;5004625;28;20045;-63
2022/07/02 04:29:33;;;;;;;8.15;4.00;;;;;;;23.34;33.14;99870.28;5030953;28;20426;-62
2022/07/02 04:31:58;;;;;;;5.45;3.80;;;;;;;23.49;32.85;99862.88;5029669;28;20045;-64
2022/07/02 04:34:24;;;;;;;8.25;4.13;;;;;;;23.64;32.47;99857.03;5031141;28;20462;-65
2022/07/02 04:36:50;;;;;;;7.80;3.75;;;;;;;23.77;32.56;99847.25;5050086;28;20430;-63
2022/07/02 04:39:15;;;;;;;6.65;3.90;;;;;;;23.60;32.63;99858.78;5050788;28;20040;-64
2022/07/02 04:41:41;;;;;;;7.93;3.72;;;;;;;23.65;33.00;99850.53;5051068;28;20037;-62
2022/07/02 04:44:07;;;;;;;8.75;3.95;;;;;;;23.98;33.07;99848.25;5050731;28;20499;-62
2022/07/02 04:46:32;;;;;;;5.95;3.72;;;;;;;24.13;32.71;99851.63;5047503;28;20041;-64
2022/07/02 04:48:58;;;;;;;6.55;3.50;;;;;;;23.89;32.29;99852.06;5051018;28;20060;-62
2022/07/02 04:51:24;;;;;;;5.32;3.50;;;;;;;23.90;31.93;99842.81;5049502;28;20522;-66
2022/07/02 04:53:49;;;;;;;6.97;3.40;;;;;;;23.68;31.84;99836.38;5050804;28;20049;-62
2022/07/02 04:56:15;;;;;;;5.63;3.72;;;;;;;23.64;31.84;99845.44;5034577;28;20085;-63
2022/07/02 04:58:41;;;;;;;6.60;3.45;;;;;;;23.74;30.88;99840.56;5030630;28;20533;-63
2022/07/02 05:01:07;;;;;;;6.47;3.55;;;;;;;24.16;31.02;99853.72;5031031;28;20051;-64
2022/07/02 05:03:32;;;;;;;4.57;3.35;;;;;;;24.30;30.71;99845.44;5030863;28;20034;-64
2022/07/02 05:05:58;;;;;;;4.47;3.20;;;;;;;24.18;30.07;99846.06;5035860;28;20039;-64
2022/07/02 05:08:26;;;;;;;8.07;3.38;;;;;;;24.44;29.72;99841.50;5054702;28;20045;-63
2022/07/02 05:10:56;;;;;;;6.00;3.50;;;;;;;24.55;28.36;99841.97;5054437;28;20128;-65
2022/07/02 05:13:22;;;;;;;5.55;3.47;;;;;;;24.29;28.76;99830.28;5053097;28;20410;-64
2022/07/02 05:15:48;;;;;;;4.85;3.38;;;;;;;23.99;29.40;99840.94;5043959;28;20470;-63
2022/07/02 05:18:14;;;;;;;5.10;3.60;;;;;;;23.68;30.02;99835.56;5034167;28;20037;-64
2022/07/02 05:20:40;;;;;;;6.15;3.75;;;;;;;23.32;30.35;99840.06;5034058;28;20400;-65
2022/07/02 05:23:06;;;;;;;6.85;3.65;;;;;;;23.19;31.00;99834.75;5034563;28;20396;-65
2022/07/02 05:25:32;;;;;;;7.57;3.78;;;;;;;23.18;31.13;99836.66;5034962;28;20038;-64
2022/07/02 05:27:58;;;;;;;6.25;3.70;;;;;;;23.17;30.90;99824.22;5032937;28;20053;-64
2022/07/02 05:30:23;;;;;;;5.75;3.10;;;;;;;22.95;31.03;99835.09;5033928;28;20107;-65
2022/07/02 05:32:49;;;;;;;4.82;3.00;;;;;;;22.79;29.82;99830.00;5033791;28;20140;-68
2022/07/02 05:35:15;;;;;;;3.72;2.90;;;;;;;22.73;30.13;99831.22;5040055;28;20041;-64
2022/07/02 05:37:40;;;;;;;3.75;2.88;;;;;;;22.35;29.65;99828.09;5054025;28;20132;-64
2022/07/02 05:40:07;;;;;;;5.65;3.13;;;;;;;22.25;30.35;99825.63;5045589;28;20041;-64
2022/07/02 05:42:33;;;;;;;6.78;3.42;;;;;;;22.30;30.57;99829.00;5034964;28;20101;-65
2022/07/02 05:44:58;;;;;;;6.15;3.25;;;;;;;22.14;31.12;99836.59;5048695;28;20124;-65
2022/07/02 05:47:24;;;;;;;3.95;3.00;;;;;;;22.04;31.21;99831.44;5053577;28;20048;-64
2022/07/02 05:49:50;;;;;;;5.07;2.85;;;;;;;21.88;32.08;99825.53;5053470;28;20045;-65
2022/07/02 05:52:17;;;;;;;5.85;3.30;;;;;;;21.89;32.06;99824.47;5044404;28;20045;-65
2022/07/02 05:54:45;;;;;;;5.32;3.50;;;;;;;21.81;31.10;99833.25;5044605;28;20041;-66
2022/07/02 05:57:11;;;;;;;5.00;3.63;;;;;;;21.66;32.31;99830.88;5053695;28;20048;-65
2022/07/02 05:59:37;;;;;;;5.40;3.60;;;;;;;21.60;32.55;99823.97;5050992;28;20061;-65
2022/07/02 06:02:06;;;;;;;4.38;3.20;;;;;;;21.59;32.16;99823.19;5053395;28;20056;-65
2022/07/02 06:04:32;;;;;;;6.33;3.70;;;;;;;21.55;32.15;99822.97;5035138;28;20097;-65
2022/07/02 06:09:43;;;;;;;6.18;3.00;;;;;;;21.41;30.95;99826.75;5032002;28;20442;-65
2022/07/02 06:12:09;;;;;;;6.70;2.95;;;;;;;21.26;31.67;99825.91;5028227;28;20104;-66
2022/07/02 06:14:34;;;;;;;6.40;3.40;;;;;;;21.29;30.36;99822.59;5052306;28;20033;-63
2022/07/02 06:17:00;;;;;;;7.22;3.42;;;;;;;21.30;30.86;99826.94;5042178;28;20048;-66
2022/07/02 06:19:26;;;;;;;6.53;3.03;;;;;;;21.29;31.06;99813.72;5031250;28;20052;-64
2022/07/02 06:21:52;;;;;;;4.78;3.00;;;;;;;21.18;32.18;99825.78;5031550;28;20120;-65
2022/07/02 06:24:17;;;;;;;5.13;2.88;;;;;;;21.17;31.07;99816.13;5031459;28;20053;-65
2022/07/02 06:26:43;;;;;;;4.65;3.30;;;;;;;20.97;31.21;99818.09;5033327;28;20128;-63
2022/07/02 06:29:09;;;;;;;4.97;3.20;;;;;;;20.82;31.07;99811.06;5032580;28;20403;-64
2022/07/02 06:31:36;;;;;;;5.03;3.17;;;;;;;20.85;30.99;99799.69;5033441;28;20045;-65
2022/07/02 06:34:03;;;;;;;4.65;2.90;;;;;;;20.84;31.57;99794.59;5032689;28;20088;-65
2022/07/02 06:36:29;;;;;;;5.75;3.10;;;;;;;20.79;30.83;99803.53;5032610;28;20343;-66
2022/07/02 06:38:54;;;;;;;15.48;3.35;;;;;;;20.77;29.82;99802.25;5032569;28;20041;-65
2022/07/02 06:44:05;;;;;;;3.90;2.75;;;;;;;20.93;31.10;99798.19;5032285;28;20522;-64
2022/07/02 06:46:32;;;;;;;4.43;3.05;;;;;;;20.90;30.89;99793.41;5032378;28;20484;-64
2022/07/02 06:49:01;;;;;;;;;;;;;;;20.99;31.09;99796.22;5032856;28;20046;-68
2022/07/02 06:51:27;;;;;;;5.13;2.80;;;;;;;20.95;30.34;99797.91;5060232;28;19936;-67
2022/07/02 06:53:59;;;;;;;6.15;3.38;;;;;;;21.00;30.73;99795.94;5032054;28;20136;-64
2022/07/02 06:56:29;;;;;;;5.28;2.97;;;;;;;20.91;30.12;99805.78;5036056;28;20037;-65
2022/07/02 06:58:56;;;;;;;3.83;2.73;;;;;;;20.87;30.01;99797.47;5051560;28;20064;-63
2022/07/02 07:01:22;;;;;;;4.80;3.10;;;;;;;20.81;30.42;99798.66;5050087;28;20491;-65
2022/07/02 07:03:48;;;;;;;4.25;2.90;;;;;;;20.84;30.67;99810.75;5050902;28;20130;-66
2022/07/02 07:06:13;;;;;;;4.43;2.92;;;;;;;20.84;30.55;99802.66;5050591;28;20522;-67
2022/07/02 07:08:39;;;;;;;5.15;3.53;;;;;;;20.82;30.70;99797.59;5050506;28;20507;-66
2022/07/02 07:11:05;;;;;;;4.60;3.38;;;;;;;20.89;30.31;99789.13;5049569;28;20072;-64
2022/07/02 07:13:31;;;;;;;5.05;2.95;;;;;;;20.97;30.82;99798.41;5050431;28;20503;-64
2022/07/02 07:15:56;;;;;;;4.65;3.10;;;;;;;21.02;30.33;99788.34;5052007;28;20060;-63
2022/07/02 07:18:22;;;;;;;5.45;2.95;;;;;;;21.11;30.58;99785.75;5051952;28;20123;-66
2022/07/02 07:20:49;;;;;;;5.68;2.97;;;;;;;21.11;30.26;99777.66;5050415;28;20202;-67
2022/07/02 07:23:15;;;;;;;4.10;2.92;;;;;;;21.16;31.11;99784.88;5051993;28;20049;-68
2022/07/02 07:25:41;;;;;;;4.97;3.00;;;;;;;21.17;30.34;99784.56;5033205;28;20231;-67
2022/07/02 07:28:07;;;;;;;5.85;2.92;;;;;;;21.34;30.17;99781.28;5051398;28;20044;-66
2022/07/02 07:30:32;;;;;;;5.47;3.08;;;;;;;21.43;29.85;99789.50;5036394;28;20051;-69
2022/07/02 07:32:58;;;;;;;4.97;2.60;;;;;;;21.31;29.08;99782.69;5031789;28;20042;-67
2022/07/02 07:35:24;;;;;;;6.68;2.97;;;;;;;21.40;28.97;99777.41;5036222;28;20049;-65
2022/07/02 07:37:59;;;;;;;4.15;3.05;;;;;;;21.47;29.20;99771.63;5030054;28;20521;-68
2022/07/02 07:40:26;;;;;;;5.22;3.00;;;;;;;21.40;29.91;99782.81;5003006;28;20057;-67
2022/07/02 07:42:52;;;;;;;5.63;3.00;;;;;;;21.47;30.25;99796.72;5051409;28;20071;-66
2022/07/02 07:45:18;;;;;;;6.07;2.80;;;;;;;21.39;30.45;99789.31;5049832;28;20460;-66
2022/07/02 07:47:43;;;;;;;4.65;3.03;;;;;;;21.41;30.43;99773.63;5046793;28;20107;-66
2022/07/02 07:50:09;;;;;;;3.95;2.80;;;;;;;21.45;30.67;99776.53;5051272;28;20048;-68
2022/07/02 07:52:35;;;;;;;3.75;2.95;;;;;;;21.53;30.54;99770.41;5049785;28;20074;-67
2022/07/02 07:55:01;;;;;;;5.72;3.10;;;;;;;21.65;30.18;99776.13;5051330;28;20124;-67
2022/07/02 07:57:26;;;;;;;5.35;3.15;;;;;;;21.69;29.80;99774.41;5050748;28;20032;-66
2022/07/02 07:59:52;;;;;;;7.53;3.05;;;;;;;21.72;29.84;99765.72;5050960;28;20063;-68
2022/07/02 08:02:18;;;;;;;5.82;2.95;;;;;;;21.80;29.97;99766.13;5049208;28;20075;-66
2022/07/02 08:04:43;;;;;;;5.30;2.97;;;;;;;21.73;30.28;99766.50;5048156;28;20049;-64
2022/07/02 08:07:09;;;;;;;3.90;2.80;;;;;;;21.84;30.41;99770.59;5051260;28;20045;-64
2022/07/02 08:09:34;;;;;;;4.30;2.70;;;;;;;21.74;29.60;99770.81;5050710;28;20494;-66
2022/07/02 08:12:00;;;;;;;6.07;2.92;;;;;;;21.81;29.12;99765.78;5029710;28;20042;-68
2022/07/02 08:14:26;;;;;;;5.15;2.70;;;;;;;21.89;28.99;99772.38;5030888;28;20041;-64
2022/07/02 08:16:51;;;;;;;5.38;3.08;;;;;;;21.84;29.80;99765.19;5031135;28;20041;-64
2022/07/02 08:19:17;;;;;;;4.78;3.20;;;;;;;21.89;30.04;99772.38;5015785;28;20052;-64
2022/07/02 08:21:43;;;;;;;5.70;3.20;;;;;;;21.83;29.81;99760.13;5050870;28;20045;-65
2022/07/02 08:24:08;;;;;;;4.55;2.97;;;;;;;21.83;29.65;99762.81;5049169;28;20045;-64
2022/07/02 08:26:34;;;;;;;4.93;2.70;;;;;;;21.87;28.80;99763.78;5050378;28;20094;-64
2022/07/02 08:29:00;;;;;;;4.00;2.50;;;;;;;21.96;28.96;99756.56;5050541;28;20044;-65
2022/07/02 08:31:26;;;;;;;5.03;3.10;;;;;;;22.08;29.83;99750.63;5050849;28;20049;-67
2022/07/02 08:33:52;;;;;;;5.68;3.08;;;;;;;22.02;30.16;99762.66;5050760;28;20045;-64
2022/07/02 08:36:18;;;;;;;5.80;3.13;;;;;;;21.93;29.80;99749.88;5048730;28;20067;-63
2022/07/02 08:38:43;;;;;;;3.67;2.47;;;;;;;21.88;29.45;99747.28;5050754;28;20491;-66
2022/07/02 08:41:12;;;;;;;3.78;2.53;;;;;;;21.95;30.17;99744.19;5049944;28;20115;-72
2022/07/02 08:43:39;;;;;;;3.95;2.70;;;;;;;22.00;30.13;99734.06;5035932;28;20142;-67
2022/07/02 08:46:06;;;;;;;3.65;2.60;;;;;;;22.14;29.73;99733.22;5035213;28;20040;-66
2022/07/02 08:48:35;;;;;;;4.97;2.97;;;;;;;22.20;30.56;99734.72;5054923;28;20048;-65
2022/07/02 08:51:01;;;;;;;5.05;2.97;;;;;;;22.27;30.27;99737.81;5053164;28;20570;-61
2022/07/02 08:53:27;;;;;;;9.77;3.05;;;;;;;22.25;29.99;99747.31;5049907;28;20132;-64
2022/07/02 08:55:54;;;;;;;7.85;3.00;;;;;;;22.24;29.25;99730.31;5049680;28;20095;-63
2022/07/02 08:58:21;;;;;;;4.38;2.70;;;;;;;22.02;29.27;99704.06;5036708;28;20041;-61
2022/07/02 09:00:48;;;;;;;7.40;2.60;;;;;;;22.11;29.50;99731.13;5049258;28;20465;-64
2022/07/02 09:03:14;;;;;;;4.00;2.60;;;;;;;22.11;28.95;99717.63;5044970;28;20136;-62
2022/07/02 09:05:42;;;;;;;4.22;2.30;;;;;;;22.10;29.28;99722.25;5032788;28;20037;-64
2022/07/02 09:08:08;;;;;;;3.42;2.53;;;;;;;22.13;28.69;99710.03;5035371;28;20041;-63
2022/07/02 09:10:35;;;;;;;7.70;2.97;;;;;;;22.15;30.18;99713.22;5015626;28;20049;-65
2022/07/02 09:13:01;;;;;;;7.18;3.10;;;;;;;22.19;29.47;99719.63;5032960;28;20072;-65
2022/07/02 09:15:26;;;;;;;5.57;3.10;;;;;;;22.20;29.67;99710.41;5033867;28;20041;-66
2022/07/02 09:17:52;;;;;;;4.40;2.30;;;;;;;22.22;28.96;99700.91;5034408;28;20083;-65
2022/07/02 09:20:18;;;;;;;4.00;2.78;;;;;;;22.26;28.99;99694.91;5032662;28;20049;-64
2022/07/02 09:22:46;;;;;;;4.65;2.55;;;;;;;22.18;28.74;99713.44;5034326;28;20132;-64
2022/07/02 09:25:17;;;;;;;5.25;2.70;;;;;;;22.19;28.12;99708.84;5034360;28;20068;-66
2022/07/02 09:27:44;;;;;;;3.65;2.40;;;;;;;22.25;28.20;99699.50;5033773;28;20045;-65
2022/07/02 09:30:14;;;;;;;4.55;2.60;;;;;;;22.22;28.44;99692.03;5034203;28;20084;-60
2022/07/02 09:32:42;;;;;;;3.47;2.30;;;;;;;22.21;28.33;99691.22;5034193;28;20053;-64
2022/07/02 09:35:17;;;;;;;4.47;2.47;;;;;;;22.19;28.45;99679.94;5034672;28;20073;-63
2022/07/02 09:37:42;;;;;;;3.67;2.38;;;;;;;22.24;28.52;99670.91;5034047;28;20044;-61
2022/07/02 09:40:09;;;;;;;6.10;2.75;;;;;;;22.28;28.50;99673.78;5032600;28;20049;-62
2022/07/02 09:42:35;;;;;;;5.30;2.90;;;;;;;22.30;28.04;99661.59;5034154;28;20046;-63
2022/07/02 09:45:03;;;;;;;4.03;2.47;;;;;;;22.31;27.96;99675.88;5035076;28;20068;-63
2022/07/02 09:47:34;;;;;;;5.93;2.40;;;;;;;22.28;28.11;99681.91;5036087;28;20044;-62
2022/07/02 09:50:12;;;;;;;4.30;2.60;;;;;;;22.22;27.55;99673.91;5053887;28;20053;-62
2022/07/02 09:52:48;;;;;;;5.03;2.60;;;;;;;22.28;27.08;99660.28;5053436;28;20072;-62
2022/07/02 09:55:32;;;;;;;5.65;2.33;;;;;;;22.35;27.77;99656.03;5050473;28;20045;-62
2022/07/02 09:58:02;;;;;;;4.10;2.65;;;;;;;22.33;28.59;99665.56;5052073;28;20036;-64
2022/07/02 10:00:32;;;;;;;4.47;2.60;;;;;;;22.38;28.53;99641.13;5053570;28;20085;-60
2022/07/02 10:03:00;;;;;;;4.03;2.42;;;;;;;22.45;28.23;99644.97;5053704;28;20091;-63
2022/07/02 10:05:27;;;;;;;7.43;2.67;;;;;;;22.48;28.61;99640.88;5053472;28;20053;-63
2022/07/02 10:07:54;;;;;;;5.53;2.83;;;;;;;22.52;28.31;99639.13;5050503;28;20062;-63
2022/07/02 10:10:38;;;;;;;4.82;2.70;;;;;;;22.53;28.25;99640.75;5047937;28;20033;-64
2022/07/02 10:13:08;;;;;;;3.80;2.53;;;;;;;22.52;27.73;99641.03;5031663;28;20553;-64
2022/07/02 10:15:38;;;;;;;3.90;2.50;;;;;;;22.52;28.02;99630.22;5033377;28;20049;-63
2022/07/02 10:18:05;;;;;;;;;;;;;;;22.53;28.02;99629.13;5032331;28;20088;-68
2022/07/02 10:20:33;;;;;;;4.00;2.70;;;;;;;22.57;28.14;99625.50;5033133;28;19932;-65
2022/07/02 10:23:05;;;;;;;4.82;2.55;;;;;;;22.62;27.95;99627.28;5033293;28;20132;-65
2022/07/02 10:25:33;;;;;;;4.18;2.45;;;;;;;22.64;28.65;99630.44;5032358;28;20045;-63
2022/07/02 10:27:59;;;;;;;3.55;2.75;;;;;;;22.75;27.74;99639.88;5033265;28;20047;-68
2022/07/02 10:30:36;;;;;;;5.63;3.00;;;;;;;22.81;27.98;99641.31;5030927;28;20136;-65
2022/07/02 10:33:17;;;;;;;7.15;3.10;;;;;;;22.82;27.91;99647.50;5031594;28;20037;-59
2022/07/02 10:35:43;;;;;;;3.50;2.40;;;;;;;22.78;27.75;99628.44;5032675;28;20045;-61
2022/07/02 10:38:08;;;;;;;4.60;2.85;;;;;;;22.83;27.83;99627.50;5033097;28;20491;-62
2022/07/02 10:40:46;;;;;;;4.05;2.47;;;;;;;22.75;27.59;99631.75;5032594;28;20056;-61
2022/07/02 10:43:17;;;;;;;4.32;2.60;;;;;;;22.66;28.47;99628.22;5031625;28;20049;-62
2022/07/02 10:45:43;;;;;;;4.88;2.58;;;;;;;22.69;28.61;99614.09;5032549;28;20111;-61
2022/07/02 10:48:11;;;;;;;4.13;2.80;;;;;;;22.75;28.75;99609.34;5032576;28;20091;-61
2022/07/02 10:50:39;;;;;;;4.22;2.70;;;;;;;22.85;29.43;99604.47;5032459;28;20404;-62
2022/07/02 10:53:12;;;;;;;5.88;3.03;;;;;;;22.89;29.38;99602.72;5032801;28;20148;-61
2022/07/02 10:55:42;;;;;;;7.28;2.65;;;;;;;22.93;28.65;99597.47;5032671;28;20614;-61
2022/07/02 10:58:18;;;;;;;4.85;2.90;;;;;;;23.01;28.52;99596.72;5032942;28;20091;-61
2022/07/02 11:00:44;;;;;;;6.05;2.88;;;;;;;23.07;28.77;99595.47;5032675;28;20061;-61
2022/07/02 11:03:10;;;;;;;8.45;2.72;;;;;;;23.07;28.44;99616.31;5030690;28;20045;-62
2022/07/02 11:06:05;;;;;;;4.43;2.60;;;;;;;23.02;27.66;99611.03;5032146;28;20111;-63
2022/07/02 11:08:44;;;;;;;4.40;2.50;;;;;;;22.98;27.76;99607.38;5032565;28;20124;-62
2022/07/02 11:11:34;;;;;;;4.00;2.75;;;;;;;22.97;28.03;99616.59;5032072;28;20108;-62
2022/07/02 11:14:08;;;;;;;3.55;2.10;;;;;;;22.91;28.39;99605.09;5031953;28;20155;-62
2022/07/02 11:16:42;;;;;;;4.53;2.85;;;;;;;22.96;28.40;99596.88;5032080;28;20120;-62
2022/07/02 11:19:16;;;;;;;5.63;3.22;;;;;;;22.98;28.38;99594.66;5030927;28;20038;-62
2022/07/02 11:21:42;;;;;;;6.88;2.80;;;;;;;23.01;27.59;99607.56;5032125;28;20049;-61
2022/07/02 11:24:10;;;;;;;3.72;2.50;;;;;;;23.05;27.57;99592.28;5031967;28;20049;-61
2022/07/02 11:26:40;;;;;;;3.50;2.40;;;;;;;23.12;27.38;99584.50;5032038;28;20048;-62
2022/07/02 11:29:06;;;;;;;3.22;2.58;;;;;;;23.12;29.27;99602.66;5047278;28;20057;-61
2022/07/02 11:31:36;;;;;;;4.72;2.80;;;;;;;23.15;28.57;99591.19;5032074;28;20033;-62
2022/07/02 11:34:02;;;;;;;3.83;2.90;;;;;;;23.19;28.77;99592.16;5031664;28;20514;-62
2022/07/02 11:36:28;;;;;;;5.55;2.60;;;;;;;23.21;27.94;99581.81;5031830;28;20052;-61
2022/07/02 11:38:55;;;;;;;6.00;2.40;;;;;;;23.24;27.25;99585.81;5030463;28;20399;-60